createdAt,value
2023-02-13T00:00:31.710Z,84.27
2023-02-13T00:01:31.669Z,84.55
2023-02-13T00:02:31.655Z,84.94
2023-02-13T00:03:31.643Z,85.31
2023-02-13T00:04:31.523Z,85.69
2023-02-13T00:05:31.482Z,85.97
2023-02-13T00:06:31.450Z,86.64
2023-02-13T00:07:31.378Z,86.26
2023-02-13T00:08:31.329Z,86.55
2023-02-13T00:09:31.282Z,86.45
2023-02-13T00:10:31.230Z,86.45
2023-02-13T00:11:31.198Z,86.35
2023-02-13T00:12:31.165Z,85.97
2023-02-13T00:13:31.092Z,85.97
2023-02-13T00:14:31.062Z,85.88
2023-02-13T00:15:31.051Z,86.11
2023-02-13T00:16:30.949Z,85.45
2023-02-13T00:17:30.907Z,85.17
2023-02-13T00:18:30.854Z,84.98
2023-02-13T00:19:30.806Z,84.98
2023-02-13T00:20:30.786Z,85.26
2023-02-13T00:21:30.710Z,85.17
2023-02-13T00:22:30.663Z,85.17
2023-02-13T00:23:30.659Z,85.26
2023-02-13T00:24:30.575Z,85.31
2023-02-13T00:25:30.535Z,85.41
2023-02-13T00:26:30.495Z,85.22
2023-02-13T00:27:30.422Z,85.41
2023-02-13T00:28:30.445Z,85.31
2023-02-13T00:29:30.326Z,85.60
2023-02-13T00:30:30.273Z,85.31
2023-02-13T00:31:30.332Z,85.22
2023-02-13T00:32:30.190Z,85.31
2023-02-13T00:33:30.126Z,85.17
2023-02-13T00:34:30.084Z,84.94
2023-02-13T00:35:30.041Z,84.69
2023-02-13T00:36:29.987Z,84.50
2023-02-13T00:37:29.964Z,84.22
2023-02-13T00:38:29.886Z,84.12
2023-02-13T00:39:29.848Z,84.12
2023-02-13T00:40:29.801Z,83.65
2023-02-13T00:41:29.744Z,83.36
2023-02-13T00:42:29.712Z,83.65
2023-02-13T00:43:29.667Z,83.27
2023-02-13T00:44:29.615Z,83.23
2023-02-13T00:45:29.552Z,83.04
2023-02-13T00:46:29.536Z,83.23
2023-02-13T00:47:29.595Z,83.23
2023-02-13T00:48:29.561Z,83.32
2023-02-13T00:49:29.381Z,83.98
2023-02-13T00:50:29.308Z,84.27
2023-02-13T00:51:29.267Z,84.27
2023-02-13T00:52:29.221Z,83.98
2023-02-13T00:53:29.201Z,84.08
2023-02-13T00:54:29.122Z,84.74
2023-02-13T00:55:29.115Z,84.36
2023-02-13T00:56:29.024Z,84.74
2023-02-13T00:57:28.989Z,84.74
2023-02-13T00:58:28.956Z,85.13
2023-02-13T00:59:28.882Z,85.69
2023-02-13T01:00:28.834Z,85.13
2023-02-13T01:01:29.067Z,85.31
2023-02-13T01:02:28.743Z,85.78
2023-02-13T01:03:28.716Z,85.78
2023-02-13T01:04:28.643Z,85.50
2023-02-13T01:05:28.592Z,85.31
2023-02-13T01:06:28.553Z,85.13
2023-02-13T01:07:28.552Z,85.31
2023-02-13T01:08:28.554Z,85.50
2023-02-13T01:09:28.408Z,85.22
2023-02-13T01:10:28.354Z,85.03
2023-02-13T01:11:28.308Z,85.78
2023-02-13T01:12:28.260Z,85.31
2023-02-13T01:13:28.228Z,85.60
2023-02-13T01:14:28.163Z,84.94
2023-02-13T01:15:28.117Z,85.03
2023-02-13T01:16:28.184Z,84.94
2023-02-13T01:17:28.022Z,84.94
2023-02-13T01:18:27.971Z,85.50
2023-02-13T01:19:27.947Z,85.22
2023-02-13T01:20:27.880Z,84.84
2023-02-13T01:21:27.833Z,85.03
2023-02-13T01:22:27.790Z,85.22
2023-02-13T01:23:27.736Z,85.31
2023-02-13T01:24:27.689Z,85.22
2023-02-13T01:25:27.657Z,85.22
2023-02-13T01:26:27.613Z,85.22
2023-02-13T01:27:27.539Z,85.22
2023-02-13T01:28:27.543Z,85.22
2023-02-13T01:29:27.443Z,85.22
2023-02-13T01:30:27.402Z,85.31
2023-02-13T01:31:27.470Z,85.22
2023-02-13T01:32:27.302Z,85.22
2023-02-13T01:33:27.251Z,85.78
2023-02-13T01:34:27.205Z,85.88
2023-02-13T01:35:27.153Z,85.88
2023-02-13T01:36:27.107Z,84.94
2023-02-13T01:37:27.085Z,85.22
2023-02-13T01:38:27.013Z,85.50
2023-02-13T01:39:26.963Z,85.22
2023-02-13T01:40:26.908Z,85.60
2023-02-13T01:41:26.913Z,85.60
2023-02-13T01:42:26.826Z,85.93
2023-02-13T01:43:26.766Z,86.07
2023-02-13T01:44:26.718Z,85.88
2023-02-13T01:45:26.669Z,86.16
2023-02-13T01:46:26.652Z,86.45
2023-02-13T01:47:26.703Z,86.26
2023-02-13T01:48:26.532Z,86.41
2023-02-13T01:49:26.472Z,86.22
2023-02-13T01:50:26.424Z,86.22
2023-02-13T01:51:26.384Z,86.31
2023-02-13T01:52:26.366Z,86.41
2023-02-13T01:53:26.301Z,87.16
2023-02-13T01:54:26.240Z,86.45
2023-02-13T01:55:26.194Z,86.16
2023-02-13T01:56:26.143Z,86.16
2023-02-13T01:57:26.091Z,86.26
2023-02-13T01:58:26.036Z,86.35
2023-02-13T01:59:26.008Z,86.35
2023-02-13T02:00:25.945Z,86.45
2023-02-13T02:01:25.926Z,86.45
2023-02-13T02:02:26.113Z,86.45
2023-02-13T02:03:25.795Z,86.45
2023-02-13T02:04:25.758Z,86.26
2023-02-13T02:05:25.721Z,86.16
2023-02-13T02:06:25.649Z,86.64
2023-02-13T02:07:25.602Z,86.26
2023-02-13T02:08:25.556Z,86.35
2023-02-13T02:09:25.522Z,86.22
2023-02-13T02:10:25.456Z,87.02
2023-02-13T02:11:25.425Z,87.12
2023-02-13T02:12:25.364Z,86.93
2023-02-13T02:13:25.324Z,86.83
2023-02-13T02:14:25.269Z,87.02
2023-02-13T02:15:25.219Z,87.21
2023-02-13T02:16:25.224Z,87.68
2023-02-13T02:17:25.154Z,86.98
2023-02-13T02:18:25.081Z,88.02
2023-02-13T02:19:25.033Z,87.35
2023-02-13T02:20:24.977Z,87.02
2023-02-13T02:21:24.930Z,86.79
2023-02-13T02:22:24.885Z,87.35
2023-02-13T02:23:24.856Z,86.98
2023-02-13T02:24:24.787Z,87.16
2023-02-13T02:25:24.742Z,87.64
2023-02-13T02:26:24.703Z,87.16
2023-02-13T02:27:24.653Z,87.07
2023-02-13T02:28:24.619Z,87.26
2023-02-13T02:29:24.573Z,86.98
2023-02-13T02:30:24.546Z,86.98
2023-02-13T02:31:24.467Z,86.16
2023-02-13T02:32:24.404Z,86.45
2023-02-13T02:33:24.357Z,86.22
2023-02-13T02:34:24.307Z,87.07
2023-02-13T02:35:24.272Z,86.88
2023-02-13T02:36:24.241Z,86.69
2023-02-13T02:37:24.168Z,86.88
2023-02-13T02:38:24.115Z,87.16
2023-02-13T02:39:24.069Z,86.98
2023-02-13T02:40:24.021Z,86.98
2023-02-13T02:41:23.969Z,86.79
2023-02-13T02:42:23.958Z,86.83
2023-02-13T02:43:23.871Z,86.79
2023-02-13T02:44:23.824Z,87.64
2023-02-13T02:45:23.783Z,86.98
2023-02-13T02:46:23.758Z,87.83
2023-02-13T02:47:23.680Z,88.11
2023-02-13T02:48:23.642Z,87.77
2023-02-13T02:49:23.582Z,87.92
2023-02-13T02:50:23.532Z,88.02
2023-02-13T02:51:23.480Z,87.77
2023-02-13T02:52:23.436Z,87.68
2023-02-13T02:53:23.385Z,87.21
2023-02-13T02:54:23.353Z,87.49
2023-02-13T02:55:23.288Z,88.16
2023-02-13T02:56:23.247Z,87.64
2023-02-13T02:57:23.189Z,87.40
2023-02-13T02:58:23.143Z,87.59
2023-02-13T02:59:23.090Z,87.49
2023-02-13T03:00:23.195Z,86.93
2023-02-13T03:01:23.034Z,86.74
2023-02-13T03:02:22.949Z,87.35
2023-02-13T03:03:22.897Z,88.11
2023-02-13T03:04:22.906Z,88.11
2023-02-13T03:05:22.804Z,87.83
2023-02-13T03:06:22.777Z,87.64
2023-02-13T03:07:22.730Z,87.64
2023-02-13T03:08:22.655Z,87.16
2023-02-13T03:09:22.629Z,87.83
2023-02-13T03:10:22.569Z,87.35
2023-02-13T03:11:22.512Z,87.92
2023-02-13T03:12:22.459Z,87.83
2023-02-13T03:13:22.414Z,87.83
2023-02-13T03:14:22.466Z,87.64
2023-02-13T03:15:22.315Z,87.97
2023-02-13T03:16:22.350Z,87.12
2023-02-13T03:17:22.219Z,86.69
2023-02-13T03:18:22.171Z,87.07
2023-02-13T03:19:22.124Z,87.16
2023-02-13T03:20:22.092Z,86.93
2023-02-13T03:21:22.025Z,87.16
2023-02-13T03:22:21.980Z,86.69
2023-02-13T03:23:21.930Z,87.21
2023-02-13T03:24:21.882Z,87.26
2023-02-13T03:25:21.833Z,87.54
2023-02-13T03:26:21.802Z,88.02
2023-02-13T03:27:21.734Z,87.54
2023-02-13T03:28:21.721Z,88.02
2023-02-13T03:29:21.638Z,87.64
2023-02-13T03:30:21.685Z,87.54
2023-02-13T03:31:21.601Z,87.64
2023-02-13T03:32:21.499Z,88.11
2023-02-13T03:33:21.455Z,87.83
2023-02-13T03:34:21.395Z,88.11
2023-02-13T03:35:21.348Z,88.40
2023-02-13T03:36:21.302Z,87.83
2023-02-13T03:37:21.272Z,87.83
2023-02-13T03:38:21.205Z,87.83
2023-02-13T03:39:21.154Z,87.92
2023-02-13T03:40:21.106Z,88.11
2023-02-13T03:41:21.089Z,88.02
2023-02-13T03:42:21.014Z,87.83
2023-02-13T03:43:21.134Z,88.11
2023-02-13T03:44:20.916Z,87.83
2023-02-13T03:45:20.862Z,87.73
2023-02-13T03:46:20.825Z,87.26
2023-02-13T03:47:20.769Z,87.45
2023-02-13T03:48:20.719Z,87.54
2023-02-13T03:49:20.689Z,87.35
2023-02-13T03:50:20.631Z,88.02
2023-02-13T03:51:20.569Z,88.11
2023-02-13T03:52:20.528Z,88.59
2023-02-13T03:53:20.477Z,88.21
2023-02-13T03:54:20.431Z,89.06
2023-02-13T03:55:20.396Z,88.30
2023-02-13T03:56:20.333Z,88.21
2023-02-13T03:57:20.280Z,89.15
2023-02-13T03:58:20.240Z,89.06
2023-02-13T03:59:20.186Z,89.34
2023-02-13T04:00:20.164Z,89.34
2023-02-13T04:01:20.136Z,89.06
2023-02-13T04:02:20.073Z,88.49
2023-02-13T04:03:19.988Z,88.49
2023-02-13T04:04:19.940Z,88.78
2023-02-13T04:05:19.893Z,88.87
2023-02-13T04:06:19.853Z,89.72
2023-02-13T04:07:19.826Z,89.44
2023-02-13T04:08:19.748Z,89.72
2023-02-13T04:09:19.700Z,90.10
2023-02-13T04:10:19.654Z,90.48
2023-02-13T04:11:19.623Z,90.29
2023-02-13T04:12:19.572Z,90.77
2023-02-13T04:13:19.524Z,91.05
2023-02-13T04:14:19.457Z,90.86
2023-02-13T04:15:19.410Z,90.95
2023-02-13T04:16:19.382Z,90.86
2023-02-13T04:17:19.315Z,91.14
2023-02-13T04:18:19.265Z,90.86
2023-02-13T04:19:19.254Z,91.24
2023-02-13T04:20:19.165Z,90.29
2023-02-13T04:21:19.115Z,90.95
2023-02-13T04:22:19.064Z,90.86
2023-02-13T04:23:19.023Z,91.24
2023-02-13T04:24:18.973Z,91.33
2023-02-13T04:25:18.944Z,91.71
2023-02-13T04:26:18.875Z,91.81
2023-02-13T04:27:18.822Z,91.43
2023-02-13T04:28:18.844Z,92.19
2023-02-13T04:29:18.726Z,92.09
2023-02-13T04:30:18.681Z,92.19
2023-02-13T04:31:18.734Z,92.38
2023-02-13T04:32:18.583Z,92.28
2023-02-13T04:33:18.538Z,92.47
2023-02-13T04:34:18.492Z,92.66
2023-02-13T04:35:18.441Z,92.85
2023-02-13T04:36:18.417Z,93.13
2023-02-13T04:37:18.341Z,92.76
2023-02-13T04:38:18.293Z,93.42
2023-02-13T04:39:18.246Z,93.32
2023-02-13T04:40:18.197Z,94.08
2023-02-13T04:41:18.149Z,94.46
2023-02-13T04:42:18.203Z,94.56
2023-02-13T04:43:18.061Z,94.74
2023-02-13T04:44:18.005Z,95.31
2023-02-13T04:45:17.955Z,95.31
2023-02-13T04:46:17.936Z,96.73
2023-02-13T04:47:17.873Z,96.64
2023-02-13T04:48:17.828Z,97.30
2023-02-13T04:49:17.770Z,97.02
2023-02-13T04:50:17.713Z,97.11
2023-02-13T04:51:17.678Z,97.30
2023-02-13T04:52:17.620Z,97.59
2023-02-13T04:53:17.569Z,97.26
2023-02-13T04:54:17.548Z,97.30
2023-02-13T04:55:17.475Z,96.50
2023-02-13T04:56:18.944Z,96.31
2023-02-13T04:57:17.376Z,96.31
2023-02-13T04:58:17.326Z,96.59
2023-02-13T04:59:17.287Z,96.69
2023-02-13T05:00:17.255Z,96.69
2023-02-13T05:01:17.229Z,95.93
2023-02-13T05:02:17.138Z,96.12
2023-02-13T05:03:17.096Z,96.03
2023-02-13T05:04:17.059Z,95.65
2023-02-13T05:05:16.998Z,95.65
2023-02-13T05:06:16.959Z,95.74
2023-02-13T05:07:16.899Z,95.17
2023-02-13T05:08:16.850Z,95.65
2023-02-13T05:09:16.796Z,95.45
2023-02-13T05:10:16.756Z,95.93
2023-02-13T05:11:16.701Z,96.12
2023-02-13T05:12:16.671Z,95.93
2023-02-13T05:13:16.611Z,96.41
2023-02-13T05:14:16.552Z,96.69
2023-02-13T05:15:16.510Z,96.69
2023-02-13T05:16:16.462Z,97.16
2023-02-13T05:17:16.407Z,97.45
2023-02-13T05:18:16.532Z,97.16
2023-02-13T05:19:16.311Z,97.45
2023-02-13T05:20:16.274Z,97.64
2023-02-13T05:21:16.213Z,98.35
2023-02-13T05:22:16.175Z,97.83
2023-02-13T05:23:16.123Z,97.97
2023-02-13T05:24:16.232Z,98.25
2023-02-13T05:25:16.020Z,98.44
2023-02-13T05:26:15.977Z,98.72
2023-02-13T05:27:15.934Z,99.20
2023-02-13T05:28:15.909Z,99.39
2023-02-13T05:29:15.828Z,99.58
2023-02-13T05:30:15.807Z,99.39
2023-02-13T05:31:15.789Z,99.29
2023-02-13T05:32:15.713Z,99.58
2023-02-13T05:33:15.638Z,99.77
2023-02-13T05:34:15.584Z,99.99
2023-02-13T05:35:15.541Z,99.99
2023-02-13T05:36:15.504Z,99.99
2023-02-13T05:37:15.447Z,99.99
2023-02-13T05:38:15.414Z,99.99
2023-02-13T05:39:15.384Z,99.99
2023-02-13T05:40:15.301Z,99.99
2023-02-13T05:41:15.288Z,99.99
2023-02-13T05:42:15.205Z,99.99
2023-02-13T05:43:15.159Z,99.99
2023-02-13T05:44:15.118Z,99.99
2023-02-13T05:45:15.058Z,99.99
2023-02-13T05:46:15.023Z,99.99
2023-02-13T05:47:14.957Z,99.99
2023-02-13T05:48:14.913Z,99.99
2023-02-13T05:49:14.860Z,99.99
2023-02-13T05:50:14.841Z,99.99
2023-02-13T05:51:14.771Z,99.99
2023-02-13T05:52:14.724Z,99.99
2023-02-13T05:53:14.673Z,99.99
2023-02-13T05:54:14.630Z,99.99
2023-02-13T05:55:14.569Z,99.99
2023-02-13T05:56:14.550Z,99.99
2023-02-13T05:57:14.477Z,99.99
2023-02-13T05:58:14.423Z,99.99
2023-02-13T05:59:14.395Z,99.99
2023-02-13T06:03:47.959Z,99.99
2023-02-13T06:04:47.789Z,99.99
2023-02-13T06:05:47.743Z,99.99
2023-02-13T06:06:47.691Z,99.99
2023-02-13T06:07:47.642Z,99.99
2023-02-13T06:08:47.596Z,99.99
2023-02-13T06:09:47.556Z,99.99
2023-02-13T06:10:47.495Z,99.99
2023-02-13T06:11:47.449Z,99.99
2023-02-13T06:12:47.398Z,99.99
2023-02-13T06:13:47.367Z,99.99
2023-02-13T06:14:47.302Z,99.99
2023-02-13T06:15:47.312Z,99.99
2023-02-13T06:16:47.202Z,99.99
2023-02-13T06:17:47.145Z,99.99
2023-02-13T06:18:47.103Z,99.99
2023-02-13T06:19:47.052Z,99.99
2023-02-13T06:20:47.009Z,99.99
2023-02-13T06:21:46.970Z,99.99
2023-02-13T06:22:46.907Z,99.99
2023-02-13T06:23:46.858Z,99.99
2023-02-13T06:24:46.808Z,99.99
2023-02-13T06:25:46.761Z,99.99
2023-02-13T06:26:46.712Z,99.99
2023-02-13T06:27:46.723Z,99.99
2023-02-13T06:28:46.691Z,99.99
2023-02-13T06:29:46.570Z,99.99
2023-02-13T06:30:46.552Z,99.99
2023-02-13T06:31:46.595Z,99.99
2023-02-13T06:32:46.420Z,99.99
2023-02-13T06:33:46.393Z,99.99
2023-02-13T06:34:46.334Z,99.99
2023-02-13T06:35:46.276Z,99.99
2023-02-13T06:36:46.227Z,99.99
2023-02-13T06:37:46.181Z,99.99
2023-02-13T06:38:46.133Z,99.99
2023-02-13T06:39:46.115Z,99.99
2023-02-13T06:40:46.030Z,99.99
2023-02-13T06:41:45.989Z,99.99
2023-02-13T06:42:45.938Z,99.99
2023-02-13T06:43:45.891Z,99.99
2023-02-13T06:44:45.849Z,99.99
2023-02-13T06:45:45.805Z,99.99
2023-02-13T06:46:45.820Z,99.99
2023-02-13T06:47:45.694Z,99.99
2023-02-13T06:48:45.649Z,99.99
2023-02-13T06:49:45.624Z,99.99
2023-02-13T06:50:45.726Z,99.99
2023-02-13T06:51:45.498Z,99.99
2023-02-13T06:52:45.456Z,99.99
2023-02-13T06:53:45.414Z,99.99
2023-02-13T06:54:48.000Z,99.99
2023-02-13T06:55:45.309Z,99.99
2023-02-13T06:56:45.271Z,99.99
2023-02-13T06:57:45.208Z,99.99
2023-02-13T06:58:45.168Z,99.99
2023-02-13T06:59:45.114Z,99.99
2023-02-13T07:00:45.107Z,99.99
2023-02-13T07:01:45.018Z,99.99
2023-02-13T07:02:45.068Z,99.99
2023-02-13T07:03:44.920Z,99.99
2023-02-13T07:04:44.888Z,99.99
2023-02-13T07:05:44.823Z,99.99
2023-02-13T07:06:44.775Z,99.99
2023-02-13T07:07:44.724Z,99.99
2023-02-13T07:08:44.696Z,99.99
2023-02-13T07:09:44.631Z,99.99
2023-02-13T07:10:44.585Z,99.99
2023-02-13T07:11:44.537Z,99.99
2023-02-13T07:12:45.785Z,99.99
2023-02-13T07:13:44.439Z,99.99
2023-02-13T07:14:44.435Z,99.99
2023-02-13T07:15:44.409Z,99.99
2023-02-13T07:16:44.290Z,99.99
2023-02-13T07:17:44.243Z,99.99
2023-02-13T07:18:44.196Z,99.99
2023-02-13T07:19:44.150Z,99.99
2023-02-13T07:20:44.129Z,99.99
2023-02-13T07:21:44.055Z,99.99
2023-02-13T07:22:44.080Z,99.99
2023-02-13T07:23:43.951Z,99.99
2023-02-13T07:24:43.907Z,99.99
2023-02-13T07:25:43.880Z,99.99
2023-02-13T07:26:43.842Z,99.99
2023-02-13T07:27:43.761Z,99.99
2023-02-13T07:28:43.761Z,99.99
2023-02-13T07:29:43.664Z,99.99
2023-02-13T07:30:43.635Z,99.99
2023-02-13T07:31:43.636Z,99.99
2023-02-13T07:32:43.522Z,99.72
2023-02-13T07:33:43.470Z,99.91
2023-02-13T07:34:59.616Z,99.82
2023-02-13T07:35:43.481Z,99.99
2023-02-13T07:36:43.340Z,99.99
2023-02-13T07:37:43.283Z,99.99
2023-02-13T07:38:43.228Z,99.99
2023-02-13T07:39:43.199Z,99.44
2023-02-13T07:40:43.138Z,99.44
2023-02-13T07:41:43.093Z,98.68
2023-02-13T07:42:43.074Z,98.77
2023-02-13T07:43:42.997Z,97.73
2023-02-13T07:44:42.947Z,98.02
2023-02-13T07:45:42.910Z,98.11
2023-02-13T07:46:42.917Z,98.30
2023-02-13T07:47:42.809Z,97.73
2023-02-13T07:48:42.928Z,97.26
2023-02-13T07:49:42.707Z,97.26
2023-02-13T07:50:42.661Z,97.64
2023-02-13T07:51:42.612Z,97.54
2023-02-13T07:52:42.568Z,97.16
2023-02-13T07:53:42.512Z,97.07
2023-02-13T07:54:42.495Z,96.97
2023-02-13T07:55:42.422Z,97.35
2023-02-13T07:56:42.373Z,96.97
2023-02-13T07:57:42.333Z,96.88
2023-02-13T07:58:42.280Z,96.78
2023-02-13T07:59:42.228Z,96.88
2023-02-13T08:00:42.201Z,96.59
2023-02-13T08:01:42.182Z,96.78
2023-02-13T08:02:42.083Z,96.50
2023-02-13T08:03:42.084Z,96.22
2023-02-13T08:04:41.989Z,95.98
2023-02-13T08:05:41.938Z,95.79
2023-02-13T08:06:41.897Z,95.74
2023-02-13T08:07:41.857Z,95.74
2023-02-13T08:08:41.798Z,95.79
2023-02-13T08:09:41.753Z,95.60
2023-02-13T08:10:41.702Z,95.31
2023-02-13T08:11:41.651Z,94.65
2023-02-13T08:12:41.606Z,94.93
2023-02-13T08:13:41.593Z,94.79
2023-02-13T08:14:41.511Z,95.12
2023-02-13T08:15:41.457Z,94.32
2023-02-13T08:16:41.520Z,94.84
2023-02-13T08:17:41.364Z,95.17
2023-02-13T08:18:41.314Z,94.93
2023-02-13T08:19:41.299Z,95.55
2023-02-13T08:20:41.223Z,95.45
2023-02-13T08:21:41.175Z,95.55
2023-02-13T08:22:41.119Z,95.69
2023-02-13T08:23:41.141Z,95.69
2023-02-13T08:24:41.022Z,95.79
2023-02-13T08:25:40.984Z,95.60
2023-02-13T08:26:40.960Z,95.69
2023-02-13T08:27:40.891Z,94.65
2023-02-13T08:28:40.952Z,93.61
2023-02-13T08:29:40.788Z,94.27
2023-02-13T08:30:40.789Z,94.37
2023-02-13T08:31:40.699Z,94.84
2023-02-13T08:32:53.478Z,94.27
2023-02-13T08:33:40.592Z,94.65
2023-02-13T08:34:40.546Z,94.18
2023-02-13T08:35:40.525Z,94.27
2023-02-13T08:36:40.454Z,93.89
2023-02-13T08:37:40.414Z,93.89
2023-02-13T08:39:40.315Z,94.56
2023-02-13T08:40:40.267Z,94.18
2023-02-13T08:41:40.229Z,94.56
2023-02-13T08:42:40.298Z,94.46
2023-02-13T08:43:40.115Z,94.37
2023-02-13T08:44:40.083Z,93.70
2023-02-13T08:45:40.087Z,93.41
2023-02-13T08:46:40.164Z,93.89
2023-02-13T08:47:39.985Z,93.13
2023-02-13T08:48:39.908Z,93.61
2023-02-13T08:49:39.830Z,93.70
2023-02-13T08:50:39.785Z,93.61
2023-02-13T08:51:39.734Z,93.80
2023-02-13T08:52:39.687Z,93.46
2023-02-13T08:53:39.652Z,93.08
2023-02-13T08:54:39.603Z,92.71
2023-02-13T08:55:39.546Z,92.33
2023-02-13T08:56:39.505Z,91.94
2023-02-13T08:57:39.462Z,91.85
2023-02-13T08:58:39.432Z,90.81
2023-02-13T08:59:39.354Z,91.28
2023-02-13T09:00:39.332Z,90.81
2023-02-13T09:01:39.287Z,90.62
2023-02-13T09:02:39.281Z,90.62
2023-02-13T09:03:39.168Z,90.43
2023-02-13T09:04:39.142Z,90.81
2023-02-13T09:05:39.072Z,90.52
2023-02-13T09:06:39.027Z,90.43
2023-02-13T09:07:38.986Z,91.00
2023-02-13T09:08:38.930Z,90.62
2023-02-13T09:09:38.895Z,90.62
2023-02-13T09:10:38.851Z,89.95
2023-02-13T09:11:38.791Z,90.05
2023-02-13T09:12:38.762Z,89.58
2023-02-13T09:13:38.699Z,90.14
2023-02-13T09:14:38.654Z,89.67
2023-02-13T09:15:38.598Z,89.86
2023-02-13T09:16:38.572Z,89.29
2023-02-13T09:17:38.513Z,89.20
2023-02-13T09:18:38.486Z,89.29
2023-02-13T09:19:38.416Z,89.29
2023-02-13T09:20:38.364Z,89.29
2023-02-13T09:21:38.319Z,89.00
2023-02-13T09:22:38.331Z,89.58
2023-02-13T09:23:38.228Z,89.39
2023-02-13T09:24:38.206Z,89.58
2023-02-13T09:25:38.135Z,89.39
2023-02-13T09:26:38.087Z,89.58
2023-02-13T09:27:38.034Z,89.48
2023-02-13T09:28:38.029Z,89.20
2023-02-13T09:29:37.941Z,89.29
2023-02-13T09:30:37.949Z,88.91
2023-02-13T09:31:37.968Z,89.00
2023-02-13T09:32:37.826Z,88.57
2023-02-13T09:33:37.782Z,89.14
2023-02-13T09:34:37.724Z,88.10
2023-02-13T09:35:37.663Z,87.91
2023-02-13T09:36:37.617Z,87.53
2023-02-13T09:37:37.572Z,87.62
2023-02-13T09:38:37.520Z,87.72
2023-02-13T09:39:37.496Z,86.96
2023-02-13T09:40:37.437Z,86.20
2023-02-13T09:41:37.423Z,85.44
2023-02-13T09:42:37.349Z,85.72
2023-02-13T09:43:37.295Z,85.25
2023-02-13T09:44:37.243Z,85.25
2023-02-13T09:45:37.197Z,84.97
2023-02-13T09:46:37.171Z,85.11
2023-02-13T09:47:37.136Z,85.44
2023-02-13T09:48:37.059Z,85.20
2023-02-13T09:49:37.005Z,84.59
2023-02-13T09:50:36.963Z,84.53
2023-02-13T09:51:36.915Z,83.59
2023-02-13T09:52:36.879Z,83.68
2023-02-13T09:53:36.860Z,83.20
2023-02-13T09:54:36.779Z,83.20
2023-02-13T09:55:36.723Z,83.49
2023-02-13T09:56:36.680Z,83.39
2023-02-13T09:57:36.641Z,83.01
2023-02-13T09:58:36.588Z,82.16
2023-02-13T09:59:36.565Z,82.82
2023-02-13T10:00:36.506Z,82.16
2023-02-13T10:01:36.469Z,82.26
2023-02-13T10:02:36.416Z,82.45
2023-02-13T10:03:36.364Z,81.49
2023-02-13T10:04:36.376Z,81.49
2023-02-13T10:05:36.263Z,81.49
2023-02-13T10:06:36.220Z,81.49
2023-02-13T10:07:36.169Z,81.54
2023-02-13T10:08:36.152Z,80.96
2023-02-13T10:09:36.073Z,80.40
2023-02-13T10:10:36.036Z,80.30
2023-02-13T10:11:35.984Z,79.77
2023-02-13T10:12:35.936Z,78.59
2023-02-13T10:13:35.890Z,78.53
2023-02-13T10:14:35.869Z,77.87
2023-02-13T10:15:35.837Z,78.16
2023-02-13T10:16:35.767Z,77.49
2023-02-13T10:17:35.705Z,77.58
2023-02-13T10:18:35.664Z,76.73
2023-02-13T10:19:35.618Z,76.44
2023-02-13T10:20:35.590Z,76.16
2023-02-13T10:21:35.530Z,75.49
2023-02-13T10:22:35.479Z,75.53
2023-02-13T10:23:35.432Z,75.11
2023-02-13T10:24:35.393Z,74.44
2023-02-13T10:25:35.378Z,74.67
2023-02-13T10:26:35.308Z,74.58
2023-02-13T10:27:35.263Z,74.39
2023-02-13T10:28:35.234Z,74.29
2023-02-13T10:29:35.166Z,74.29
2023-02-13T10:30:35.120Z,73.57
2023-02-13T10:31:35.689Z,73.57
2023-02-13T10:32:35.020Z,71.86
2023-02-13T10:33:34.977Z,71.38
2023-02-13T10:34:34.933Z,70.43
2023-02-13T10:35:34.892Z,70.05
2023-02-13T10:36:34.839Z,70.14
2023-02-13T10:37:34.818Z,70.52
2023-02-13T10:38:34.753Z,69.85
2023-02-13T10:39:34.702Z,69.85
2023-02-13T10:40:34.667Z,69.85
2023-02-13T10:41:34.621Z,69.95
2023-02-13T10:42:36.428Z,70.72
2023-02-13T10:43:34.562Z,70.24
2023-02-13T10:44:34.484Z,70.05
2023-02-13T10:45:34.440Z,70.05
2023-02-13T10:46:34.446Z,69.67
2023-02-13T10:47:34.339Z,69.29
2023-02-13T10:48:34.300Z,69.29
2023-02-13T10:49:34.375Z,69.13
2023-02-13T10:50:34.209Z,69.04
2023-02-13T10:51:34.166Z,68.18
2023-02-13T10:52:34.120Z,68.56
2023-02-13T10:53:34.076Z,68.27
2023-02-13T10:54:34.039Z,68.08
2023-02-13T10:55:34.001Z,67.80
2023-02-13T10:56:33.940Z,67.99
2023-02-13T10:57:33.898Z,68.18
2023-02-13T10:58:33.852Z,67.51
2023-02-13T10:59:33.827Z,67.03
2023-02-13T11:00:33.792Z,67.70
2023-02-13T11:01:33.781Z,66.85
2023-02-13T11:02:33.668Z,67.80
2023-02-13T11:03:33.621Z,67.61
2023-02-13T11:04:33.628Z,67.89
2023-02-13T11:05:33.532Z,67.80
2023-02-13T11:06:33.508Z,67.80
2023-02-13T11:07:33.454Z,67.61
2023-02-13T11:08:33.395Z,66.94
2023-02-13T11:09:33.351Z,67.41
2023-02-13T11:10:33.302Z,67.00
2023-02-13T11:11:33.275Z,67.19
2023-02-13T11:12:33.231Z,67.67
2023-02-13T11:13:33.178Z,68.05
2023-02-13T11:14:33.124Z,67.41
2023-02-13T11:15:33.123Z,67.57
2023-02-13T11:16:33.096Z,68.15
2023-02-13T11:17:32.995Z,67.86
2023-02-13T11:18:32.949Z,67.47
2023-02-13T11:19:32.905Z,67.47
2023-02-13T11:20:32.868Z,67.70
2023-02-13T11:21:32.845Z,67.51
2023-02-13T11:22:32.766Z,67.76
2023-02-13T11:23:32.726Z,67.57
2023-02-13T11:24:32.688Z,67.70
2023-02-13T11:25:32.625Z,67.89
2023-02-13T11:26:32.586Z,67.99
2023-02-13T11:27:32.565Z,67.13
2023-02-13T11:28:32.597Z,67.13
2023-02-13T11:29:32.450Z,66.94
2023-02-13T11:30:32.401Z,66.66
2023-02-13T11:31:32.460Z,66.56
2023-02-13T11:32:32.322Z,66.31
2023-02-13T11:33:32.292Z,66.40
2023-02-13T11:34:32.223Z,65.83
2023-02-13T11:35:32.184Z,65.64
2023-02-13T11:36:32.132Z,65.45
2023-02-13T11:37:32.091Z,66.21
2023-02-13T11:38:32.165Z,65.36
2023-02-13T11:39:32.023Z,65.64
2023-02-13T11:40:31.953Z,65.36
2023-02-13T11:41:31.919Z,65.64
2023-02-13T11:42:31.864Z,65.64
2023-02-13T11:43:31.820Z,65.36
2023-02-13T11:44:31.799Z,65.64
2023-02-13T11:45:31.738Z,65.20
2023-02-13T11:46:31.749Z,64.43
2023-02-13T11:47:31.645Z,64.43
2023-02-13T11:48:31.600Z,63.60
2023-02-13T11:49:31.557Z,62.94
2023-02-13T11:50:31.588Z,62.37
2023-02-13T11:51:31.465Z,62.15
2023-02-13T11:52:31.423Z,61.99
2023-02-13T11:53:31.379Z,62.34
2023-02-13T11:54:31.335Z,62.18
2023-02-13T11:55:31.310Z,61.99
2023-02-13T11:56:31.277Z,61.80
2023-02-13T11:57:31.221Z,61.60
2023-02-13T11:58:31.233Z,60.39
2023-02-13T11:59:31.121Z,60.68
2023-02-13T12:00:31.150Z,59.82
2023-02-13T12:01:31.032Z,59.63
2023-02-13T12:02:31.061Z,60.02
2023-02-13T12:03:31.020Z,59.16
2023-02-13T12:04:30.919Z,59.25
2023-02-13T12:05:30.862Z,59.53
2023-02-13T12:06:31.294Z,59.92
2023-02-13T12:07:30.788Z,59.53
2023-02-13T12:08:30.794Z,59.28
2023-02-13T12:09:30.697Z,59.09
2023-02-13T12:10:30.651Z,58.51
2023-02-13T12:11:30.605Z,58.51
2023-02-13T12:12:30.587Z,58.04
2023-02-13T12:13:30.521Z,57.85
2023-02-13T12:14:30.516Z,57.46
2023-02-13T12:15:30.435Z,57.75
2023-02-13T12:16:30.431Z,57.59
2023-02-13T12:17:32.140Z,57.78
2023-02-13T12:18:30.314Z,57.04
2023-02-13T12:19:30.278Z,55.54
2023-02-13T12:20:30.268Z,54.52
2023-02-13T12:21:30.188Z,53.28
2023-02-13T12:22:30.145Z,52.44
2023-02-13T12:23:30.106Z,51.42
2023-02-13T12:24:30.068Z,50.67
2023-02-13T12:25:30.022Z,50.10
2023-02-13T12:26:30.031Z,49.43
2023-02-13T12:27:29.949Z,48.97
2023-02-13T12:28:29.931Z,48.49
2023-02-13T12:29:29.917Z,47.63
2023-02-13T12:30:29.846Z,47.73
2023-02-13T12:31:29.813Z,47.56
2023-02-13T12:32:29.799Z,47.37
2023-02-13T12:33:29.702Z,47.10
2023-02-13T12:34:29.668Z,45.68
2023-02-13T12:35:29.628Z,45.01
2023-02-13T12:36:29.587Z,44.34
2023-02-13T12:37:29.548Z,43.96
2023-02-13T12:38:29.530Z,43.60
2023-02-13T12:39:29.475Z,43.40
2023-02-13T12:40:29.433Z,42.54
2023-02-13T12:41:29.395Z,42.73
2023-02-13T12:42:29.359Z,42.83
2023-02-13T12:43:29.324Z,42.54
2023-02-13T12:44:29.549Z,42.56
2023-02-13T12:45:29.272Z,42.54
2023-02-13T12:46:29.206Z,42.56
2023-02-13T12:47:29.168Z,42.47
2023-02-13T12:48:29.132Z,42.56
2023-02-13T12:49:29.095Z,42.27
2023-02-13T12:50:29.086Z,42.00
2023-02-13T12:51:29.022Z,41.72
2023-02-13T12:52:28.982Z,41.72
2023-02-13T12:53:29.685Z,41.62
2023-02-13T12:54:28.908Z,40.95
2023-02-13T12:55:28.869Z,41.24
2023-02-13T12:56:29.007Z,41.24